sensor_id;sensor_type;location;lat;lon;timestamp;pressure;altitude;pressure_sealevel;temperature
65569;BMP180;52211;50.154;8.682;2023-06-10T00:01:46;99832.00;;;25.20
65569;BMP180;52211;50.154;8.682;2023-06-10T00:04:22;99828.00;;;25.20
65569;BMP180;52211;50.154;8.682;2023-06-10T00:06:51;99826.00;;;25.10
65569;BMP180;52211;50.154;8.682;2023-06-10T00:09:18;99833.00;;;25.10
65569;BMP180;52211;50.154;8.682;2023-06-10T00:11:47;99828.00;;;25.10
65569;BMP180;52211;50.154;8.682;2023-06-10T00:14:16;99834.00;;;25.00
65569;BMP180;52211;50.154;8.682;2023-06-10T00:16:46;99833.00;;;25.00
65569;BMP180;52211;50.154;8.682;2023-06-10T00:19:13;99830.00;;;25.00
65569;BMP180;52211;50.154;8.682;2023-06-10T00:21:41;99826.00;;;24.90
65569;BMP180;52211;50.154;8.682;2023-06-10T00:24:09;99829.00;;;24.90
65569;BMP180;52211;50.154;8.682;2023-06-10T00:26:43;99830.00;;;24.90
65569;BMP180;52211;50.154;8.682;2023-06-10T00:29:13;99831.00;;;24.80
65569;BMP180;52211;50.154;8.682;2023-06-10T00:31:41;99828.00;;;24.80
65569;BMP180;52211;50.154;8.682;2023-06-10T00:34:12;99827.00;;;24.80
65569;BMP180;52211;50.154;8.682;2023-06-10T00:36:42;99826.00;;;24.70
65569;BMP180;52211;50.154;8.682;2023-06-10T00:39:12;99827.00;;;24.70
65569;BMP180;52211;50.154;8.682;2023-06-10T00:41:42;99826.00;;;24.70
65569;BMP180;52211;50.154;8.682;2023-06-10T00:44:15;99825.00;;;24.60
65569;BMP180;52211;50.154;8.682;2023-06-10T00:46:50;99829.00;;;24.60
65569;BMP180;52211;50.154;8.682;2023-06-10T00:49:20;99829.00;;;24.60
65569;BMP180;52211;50.154;8.682;2023-06-10T00:51:47;99824.00;;;24.50
65569;BMP180;52211;50.154;8.682;2023-06-10T00:54:17;99828.00;;;24.50
65569;BMP180;52211;50.154;8.682;2023-06-10T00:56:50;99831.00;;;24.50
65569;BMP180;52211;50.154;8.682;2023-06-10T00:59:19;99821.00;;;24.50
65569;BMP180;52211;50.154;8.682;2023-06-10T01:01:46;99824.00;;;24.50
65569;BMP180;52211;50.154;8.682;2023-06-10T01:04:21;99818.00;;;24.50
65569;BMP180;52211;50.154;8.682;2023-06-10T01:07:26;99829.00;;;24.40
65569;BMP180;52211;50.154;8.682;2023-06-10T01:10:18;99830.00;;;24.30
65569;BMP180;52211;50.154;8.682;2023-06-10T01:13:07;99832.00;;;24.30
65569;BMP180;52211;50.154;8.682;2023-06-10T01:15:39;99836.00;;;24.30
65569;BMP180;52211;50.154;8.682;2023-06-10T01:18:13;99840.00;;;24.30
65569;BMP180;52211;50.154;8.682;2023-06-10T01:20:49;99828.00;;;24.30
65569;BMP180;52211;50.154;8.682;2023-06-10T01:23:20;99833.00;;;24.30
65569;BMP180;52211;50.154;8.682;2023-06-10T01:26:00;99837.00;;;24.20
65569;BMP180;52211;50.154;8.682;2023-06-10T01:28:50;99837.00;;;24.20
65569;BMP180;52211;50.154;8.682;2023-06-10T01:32:00;99837.00;;;24.10
65569;BMP180;52211;50.154;8.682;2023-06-10T01:34:31;99840.00;;;24.10
65569;BMP180;52211;50.154;8.682;2023-06-10T01:37:02;99832.00;;;24.10
65569;BMP180;52211;50.154;8.682;2023-06-10T01:39:38;99836.00;;;24.00
65569;BMP180;52211;50.154;8.682;2023-06-10T01:42:10;99831.00;;;24.00
65569;BMP180;52211;50.154;8.682;2023-06-10T01:44:42;99837.00;;;24.00
65569;BMP180;52211;50.154;8.682;2023-06-10T01:47:09;99832.00;;;23.90
65569;BMP180;52211;50.154;8.682;2023-06-10T01:49:40;99837.00;;;23.90
65569;BMP180;52211;50.154;8.682;2023-06-10T01:52:10;99841.00;;;23.90
65569;BMP180;52211;50.154;8.682;2023-06-10T01:54:37;99835.00;;;23.90
65569;BMP180;52211;50.154;8.682;2023-06-10T01:57:05;99837.00;;;23.90
65569;BMP180;52211;50.154;8.682;2023-06-10T01:59:37;99832.00;;;23.80
65569;BMP180;52211;50.154;8.682;2023-06-10T02:02:05;99836.00;;;23.80
65569;BMP180;52211;50.154;8.682;2023-06-10T02:04:32;99847.00;;;23.80
65569;BMP180;52211;50.154;8.682;2023-06-10T02:07:04;99840.00;;;23.80
65569;BMP180;52211;50.154;8.682;2023-06-10T02:09:34;99837.00;;;23.80
65569;BMP180;52211;50.154;8.682;2023-06-10T02:12:05;99849.00;;;23.80
65569;BMP180;52211;50.154;8.682;2023-06-10T02:14:35;99845.00;;;23.70
65569;BMP180;52211;50.154;8.682;2023-06-10T02:17:06;99845.00;;;23.70
65569;BMP180;52211;50.154;8.682;2023-06-10T02:19:35;99847.00;;;23.70
65569;BMP180;52211;50.154;8.682;2023-06-10T02:22:09;99837.00;;;23.70
65569;BMP180;52211;50.154;8.682;2023-06-10T02:24:39;99839.00;;;23.60
65569;BMP180;52211;50.154;8.682;2023-06-10T02:27:11;99841.00;;;23.60
65569;BMP180;52211;50.154;8.682;2023-06-10T02:29:40;99838.00;;;23.60
65569;BMP180;52211;50.154;8.682;2023-06-10T02:32:08;99838.00;;;23.60
65569;BMP180;52211;50.154;8.682;2023-06-10T02:34:37;99843.00;;;23.50
65569;BMP180;52211;50.154;8.682;2023-06-10T02:37:08;99844.00;;;23.50
65569;BMP180;52211;50.154;8.682;2023-06-10T02:39:37;99846.00;;;23.40
65569;BMP180;52211;50.154;8.682;2023-06-10T02:42:15;99844.00;;;23.40
65569;BMP180;52211;50.154;8.682;2023-06-10T02:44:45;99847.00;;;23.40
65569;BMP180;52211;50.154;8.682;2023-06-10T02:47:20;99848.00;;;23.40
65569;BMP180;52211;50.154;8.682;2023-06-10T02:49:52;99850.00;;;23.30
65569;BMP180;52211;50.154;8.682;2023-06-10T02:52:22;99846.00;;;23.30
65569;BMP180;52211;50.154;8.682;2023-06-10T02:54:50;99843.00;;;23.30
65569;BMP180;52211;50.154;8.682;2023-06-10T02:57:17;99849.00;;;23.20
65569;BMP180;52211;50.154;8.682;2023-06-10T02:59:46;99849.00;;;23.20
65569;BMP180;52211;50.154;8.682;2023-06-10T03:02:15;99849.00;;;23.20
65569;BMP180;52211;50.154;8.682;2023-06-10T03:04:50;99851.00;;;23.20
65569;BMP180;52211;50.154;8.682;2023-06-10T03:07:19;99848.00;;;23.20
65569;BMP180;52211;50.154;8.682;2023-06-10T03:09:48;99846.00;;;23.10
65569;BMP180;52211;50.154;8.682;2023-06-10T03:12:16;99846.00;;;23.10
65569;BMP180;52211;50.154;8.682;2023-06-10T03:14:46;99857.00;;;23.10
65569;BMP180;52211;50.154;8.682;2023-06-10T03:17:18;99855.00;;;23.10
65569;BMP180;52211;50.154;8.682;2023-06-10T03:19:50;99856.00;;;23.10
65569;BMP180;52211;50.154;8.682;2023-06-10T03:22:18;99851.00;;;23.10
65569;BMP180;52211;50.154;8.682;2023-06-10T03:24:54;99859.00;;;23.10
65569;BMP180;52211;50.154;8.682;2023-06-10T03:27:23;99865.00;;;23.00
65569;BMP180;52211;50.154;8.682;2023-06-10T03:29:58;99862.00;;;23.00
65569;BMP180;52211;50.154;8.682;2023-06-10T03:32:26;99858.00;;;23.00
65569;BMP180;52211;50.154;8.682;2023-06-10T03:34:58;99865.00;;;23.00
65569;BMP180;52211;50.154;8.682;2023-06-10T03:37:29;99864.00;;;23.00
65569;BMP180;52211;50.154;8.682;2023-06-10T03:40:01;99864.00;;;22.90
65569;BMP180;52211;50.154;8.682;2023-06-10T03:42:32;99870.00;;;22.90
65569;BMP180;52211;50.154;8.682;2023-06-10T03:45:05;99868.00;;;22.90
65569;BMP180;52211;50.154;8.682;2023-06-10T03:47:36;99865.00;;;22.90
65569;BMP180;52211;50.154;8.682;2023-06-10T03:50:10;99861.00;;;22.80
65569;BMP180;52211;50.154;8.682;2023-06-10T03:52:41;99867.00;;;22.80
65569;BMP180;52211;50.154;8.682;2023-06-10T03:55:09;99868.00;;;22.90
65569;BMP180;52211;50.154;8.682;2023-06-10T03:57:41;99868.00;;;22.80
65569;BMP180;52211;50.154;8.682;2023-06-10T04:00:11;99880.00;;;22.80
65569;BMP180;52211;50.154;8.682;2023-06-10T04:02:44;99875.00;;;22.90
65569;BMP180;52211;50.154;8.682;2023-06-10T04:05:29;99873.00;;;22.80
65569;BMP180;52211;50.154;8.682;2023-06-10T04:08:03;99873.00;;;22.80
65569;BMP180;52211;50.154;8.682;2023-06-10T04:10:33;99884.00;;;22.90
65569;BMP180;52211;50.154;8.682;2023-06-10T04:13:03;99876.00;;;22.90
65569;BMP180;52211;50.154;8.682;2023-06-10T04:15:38;99880.00;;;22.90
65569;BMP180;52211;50.154;8.682;2023-06-10T04:18:08;99882.00;;;22.90
65569;BMP180;52211;50.154;8.682;2023-06-10T04:20:40;99884.00;;;22.90
65569;BMP180;52211;50.154;8.682;2023-06-10T04:23:10;99878.00;;;22.90
65569;BMP180;52211;50.154;8.682;2023-06-10T04:25:39;99884.00;;;22.90
65569;BMP180;52211;50.154;8.682;2023-06-10T04:28:12;99893.00;;;22.90
65569;BMP180;52211;50.154;8.682;2023-06-10T04:30:40;99887.00;;;22.90
65569;BMP180;52211;50.154;8.682;2023-06-10T04:33:08;99885.00;;;22.90
65569;BMP180;52211;50.154;8.682;2023-06-10T04:35:42;99883.00;;;23.00
65569;BMP180;52211;50.154;8.682;2023-06-10T04:38:13;99885.00;;;23.00
65569;BMP180;52211;50.154;8.682;2023-06-10T04:40:44;99885.00;;;23.00
65569;BMP180;52211;50.154;8.682;2023-06-10T04:43:15;99883.00;;;23.00
65569;BMP180;52211;50.154;8.682;2023-06-10T04:45:47;99886.00;;;23.00
65569;BMP180;52211;50.154;8.682;2023-06-10T04:48:17;99887.00;;;23.00
65569;BMP180;52211;50.154;8.682;2023-06-10T04:50:46;99891.00;;;23.00
65569;BMP180;52211;50.154;8.682;2023-06-10T04:53:16;99895.00;;;23.10
65569;BMP180;52211;50.154;8.682;2023-06-10T04:55:46;99893.00;;;23.10
65569;BMP180;52211;50.154;8.682;2023-06-10T04:58:13;99888.00;;;23.10
65569;BMP180;52211;50.154;8.682;2023-06-10T05:00:43;99890.00;;;23.10
65569;BMP180;52211;50.154;8.682;2023-06-10T05:03:10;99880.00;;;23.10
65569;BMP180;52211;50.154;8.682;2023-06-10T05:05:40;99886.00;;;23.10
65569;BMP180;52211;50.154;8.682;2023-06-10T05:08:09;99886.00;;;23.20
65569;BMP180;52211;50.154;8.682;2023-06-10T05:10:36;99887.00;;;23.20
65569;BMP180;52211;50.154;8.682;2023-06-10T05:13:03;99878.00;;;23.20
65569;BMP180;52211;50.154;8.682;2023-06-10T05:15:30;99879.00;;;23.20
65569;BMP180;52211;50.154;8.682;2023-06-10T05:17:57;99891.00;;;23.30
65569;BMP180;52211;50.154;8.682;2023-06-10T05:20:29;99889.00;;;23.30
65569;BMP180;52211;50.154;8.682;2023-06-10T05:23:03;99884.00;;;23.30
65569;BMP180;52211;50.154;8.682;2023-06-10T05:25:32;99889.00;;;23.30
65569;BMP180;52211;50.154;8.682;2023-06-10T05:28:01;99893.00;;;23.40
65569;BMP180;52211;50.154;8.682;2023-06-10T05:30:29;99894.00;;;23.40
65569;BMP180;52211;50.154;8.682;2023-06-10T05:32:58;99905.00;;;23.50
65569;BMP180;52211;50.154;8.682;2023-06-10T05:35:27;99896.00;;;23.50
65569;BMP180;52211;50.154;8.682;2023-06-10T05:37:54;99902.00;;;23.50
65569;BMP180;52211;50.154;8.682;2023-06-10T05:40:26;99907.00;;;23.60
65569;BMP180;52211;50.154;8.682;2023-06-10T05:42:55;99896.00;;;23.60
65569;BMP180;52211;50.154;8.682;2023-06-10T05:45:24;99900.00;;;23.70
65569;BMP180;52211;50.154;8.682;2023-06-10T05:47:56;99907.00;;;23.70
65569;BMP180;52211;50.154;8.682;2023-06-10T05:50:24;99910.00;;;23.70
65569;BMP180;52211;50.154;8.682;2023-06-10T05:52:51;99911.00;;;23.80
65569;BMP180;52211;50.154;8.682;2023-06-10T05:55:23;99911.00;;;23.90
65569;BMP180;52211;50.154;8.682;2023-06-10T05:57:59;99908.00;;;23.90
65569;BMP180;52211;50.154;8.682;2023-06-10T06:00:29;99908.00;;;24.00
65569;BMP180;52211;50.154;8.682;2023-06-10T06:03:01;99902.00;;;24.00
65569;BMP180;52211;50.154;8.682;2023-06-10T06:05:30;99911.00;;;24.10
65569;BMP180;52211;50.154;8.682;2023-06-10T06:08:02;99914.00;;;24.10
65569;BMP180;52211;50.154;8.682;2023-06-10T06:10:34;99914.00;;;24.20
65569;BMP180;52211;50.154;8.682;2023-06-10T06:13:02;99909.00;;;24.30
65569;BMP180;52211;50.154;8.682;2023-06-10T06:15:29;99911.00;;;24.30
65569;BMP180;52211;50.154;8.682;2023-06-10T06:17:56;99907.00;;;24.30
65569;BMP180;52211;50.154;8.682;2023-06-10T06:20:28;99905.00;;;24.40
65569;BMP180;52211;50.154;8.682;2023-06-10T06:22:55;99905.00;;;24.50
65569;BMP180;52211;50.154;8.682;2023-06-10T06:25:24;99898.00;;;24.50
65569;BMP180;52211;50.154;8.682;2023-06-10T06:27:55;99901.00;;;24.60
65569;BMP180;52211;50.154;8.682;2023-06-10T06:30:22;99901.00;;;24.60
65569;BMP180;52211;50.154;8.682;2023-06-10T06:32:55;99903.00;;;24.70
65569;BMP180;52211;50.154;8.682;2023-06-10T06:35:22;99906.00;;;24.70
65569;BMP180;52211;50.154;8.682;2023-06-10T06:37:56;99903.00;;;24.80
65569;BMP180;52211;50.154;8.682;2023-06-10T06:40:29;99902.00;;;24.90
65569;BMP180;52211;50.154;8.682;2023-06-10T06:42:58;99906.00;;;24.90
65569;BMP180;52211;50.154;8.682;2023-06-10T06:45:58;99916.00;;;25.00
65569;BMP180;52211;50.154;8.682;2023-06-10T06:48:25;99920.00;;;25.00
65569;BMP180;52211;50.154;8.682;2023-06-10T06:50:54;99919.00;;;25.10
65569;BMP180;52211;50.154;8.682;2023-06-10T06:53:25;99924.00;;;25.10
65569;BMP180;52211;50.154;8.682;2023-06-10T06:55:55;99920.00;;;25.20
65569;BMP180;52211;50.154;8.682;2023-06-10T06:58:26;99920.00;;;25.30
65569;BMP180;52211;50.154;8.682;2023-06-10T07:01:01;99916.00;;;25.30
65569;BMP180;52211;50.154;8.682;2023-06-10T07:03:28;99922.00;;;25.40
65569;BMP180;52211;50.154;8.682;2023-06-10T07:05:58;99915.00;;;25.50
65569;BMP180;52211;50.154;8.682;2023-06-10T07:08:25;99917.00;;;25.60
65569;BMP180;52211;50.154;8.682;2023-06-10T07:10:54;99924.00;;;25.60
65569;BMP180;52211;50.154;8.682;2023-06-10T07:13:26;99924.00;;;25.70
65569;BMP180;52211;50.154;8.682;2023-06-10T07:15:55;99925.00;;;25.80
65569;BMP180;52211;50.154;8.682;2023-06-10T07:18:29;99931.00;;;25.80
65569;BMP180;52211;50.154;8.682;2023-06-10T07:20:58;99926.00;;;25.90
65569;BMP180;52211;50.154;8.682;2023-06-10T07:23:25;99927.00;;;26.00
65569;BMP180;52211;50.154;8.682;2023-06-10T07:25:52;99934.00;;;26.10
65569;BMP180;52211;50.154;8.682;2023-06-10T07:28:23;99932.00;;;26.10
65569;BMP180;52211;50.154;8.682;2023-06-10T07:30:53;99930.00;;;26.20
65569;BMP180;52211;50.154;8.682;2023-06-10T07:33:24;99928.00;;;26.30
65569;BMP180;52211;50.154;8.682;2023-06-10T07:35:54;99930.00;;;26.30
65569;BMP180;52211;50.154;8.682;2023-06-10T07:38:21;99929.00;;;26.40
65569;BMP180;52211;50.154;8.682;2023-06-10T07:40:50;99930.00;;;26.50
65569;BMP180;52211;50.154;8.682;2023-06-10T07:43:20;99932.00;;;26.60
65569;BMP180;52211;50.154;8.682;2023-06-10T07:45:46;99931.00;;;26.60
65569;BMP180;52211;50.154;8.682;2023-06-10T07:48:16;99932.00;;;26.70
65569;BMP180;52211;50.154;8.682;2023-06-10T07:50:46;99926.00;;;26.80
65569;BMP180;52211;50.154;8.682;2023-06-10T07:53:15;99933.00;;;26.80
65569;BMP180;52211;50.154;8.682;2023-06-10T07:55:42;99933.00;;;26.90
65569;BMP180;52211;50.154;8.682;2023-06-10T07:58:15;99939.00;;;27.00
65569;BMP180;52211;50.154;8.682;2023-06-10T08:00:42;99931.00;;;27.10
65569;BMP180;52211;50.154;8.682;2023-06-10T08:03:12;99946.00;;;27.10
65569;BMP180;52211;50.154;8.682;2023-06-10T08:05:41;99937.00;;;27.20
65569;BMP180;52211;50.154;8.682;2023-06-10T08:08:10;99927.00;;;27.30
65569;BMP180;52211;50.154;8.682;2023-06-10T08:10:44;99932.00;;;27.30
65569;BMP180;52211;50.154;8.682;2023-06-10T08:13:15;99931.00;;;27.40
65569;BMP180;52211;50.154;8.682;2023-06-10T08:15:42;99923.00;;;27.50
65569;BMP180;52211;50.154;8.682;2023-06-10T08:18:08;99922.00;;;27.60
65569;BMP180;52211;50.154;8.682;2023-06-10T08:20:43;99927.00;;;27.60
65569;BMP180;52211;50.154;8.682;2023-06-10T08:23:10;99925.00;;;27.70
65569;BMP180;52211;50.154;8.682;2023-06-10T08:25:37;99927.00;;;27.80
65569;BMP180;52211;50.154;8.682;2023-06-10T08:28:04;99925.00;;;27.90
65569;BMP180;52211;50.154;8.682;2023-06-10T08:30:30;99928.00;;;27.90
65569;BMP180;52211;50.154;8.682;2023-06-10T08:32:57;99928.00;;;28.00
65569;BMP180;52211;50.154;8.682;2023-06-10T08:35:30;99931.00;;;28.10
65569;BMP180;52211;50.154;8.682;2023-06-10T08:37:59;99924.00;;;28.20
65569;BMP180;52211;50.154;8.682;2023-06-10T08:40:26;99927.00;;;28.20
65569;BMP180;52211;50.154;8.682;2023-06-10T08:43:06;99927.00;;;28.30
65569;BMP180;52211;50.154;8.682;2023-06-10T08:45:37;99929.00;;;28.40
65569;BMP180;52211;50.154;8.682;2023-06-10T08:48:07;99928.00;;;28.50
65569;BMP180;52211;50.154;8.682;2023-06-10T08:50:40;99931.00;;;28.60
65569;BMP180;52211;50.154;8.682;2023-06-10T08:53:18;99924.00;;;28.60
65569;BMP180;52211;50.154;8.682;2023-06-10T08:55:51;99920.00;;;28.70
65569;BMP180;52211;50.154;8.682;2023-06-10T08:58:22;99921.00;;;28.80
65569;BMP180;52211;50.154;8.682;2023-06-10T09:00:52;99916.00;;;28.90
65569;BMP180;52211;50.154;8.682;2023-06-10T09:03:19;99917.00;;;29.00
65569;BMP180;52211;50.154;8.682;2023-06-10T09:05:48;99912.00;;;29.10
65569;BMP180;52211;50.154;8.682;2023-06-10T09:08:17;99922.00;;;29.10
65569;BMP180;52211;50.154;8.682;2023-06-10T09:10:48;99911.00;;;29.30
65569;BMP180;52211;50.154;8.682;2023-06-10T09:13:15;99911.00;;;29.30
65569;BMP180;52211;50.154;8.682;2023-06-10T09:15:52;99911.00;;;29.40
65569;BMP180;52211;50.154;8.682;2023-06-10T09:18:21;99914.00;;;29.50
65569;BMP180;52211;50.154;8.682;2023-06-10T09:20:51;99909.00;;;29.60
65569;BMP180;52211;50.154;8.682;2023-06-10T09:23:18;99905.00;;;29.60
65569;BMP180;52211;50.154;8.682;2023-06-10T09:25:57;99904.00;;;29.70
65569;BMP180;52211;50.154;8.682;2023-06-10T09:28:27;99907.00;;;29.80
65569;BMP180;52211;50.154;8.682;2023-06-10T09:31:07;99903.00;;;29.80
65569;BMP180;52211;50.154;8.682;2023-06-10T09:33:38;99907.00;;;29.90
65569;BMP180;52211;50.154;8.682;2023-06-10T09:36:11;99910.00;;;30.00
65569;BMP180;52211;50.154;8.682;2023-06-10T09:38:41;99907.00;;;30.10
65569;BMP180;52211;50.154;8.682;2023-06-10T09:41:08;99903.00;;;30.20
65569;BMP180;52211;50.154;8.682;2023-06-10T09:43:43;99912.00;;;30.20
65569;BMP180;52211;50.154;8.682;2023-06-10T09:46:19;99905.00;;;30.30
65569;BMP180;52211;50.154;8.682;2023-06-10T09:48:51;99906.00;;;30.40
65569;BMP180;52211;50.154;8.682;2023-06-10T09:51:18;99909.00;;;30.50
65569;BMP180;52211;50.154;8.682;2023-06-10T09:53:51;99896.00;;;30.50
65569;BMP180;52211;50.154;8.682;2023-06-10T09:56:20;99892.00;;;30.60
65569;BMP180;52211;50.154;8.682;2023-06-10T09:58:56;99895.00;;;30.70
65569;BMP180;52211;50.154;8.682;2023-06-10T10:01:22;99893.00;;;30.80
65569;BMP180;52211;50.154;8.682;2023-06-10T10:03:54;99895.00;;;30.90
65569;BMP180;52211;50.154;8.682;2023-06-10T10:06:24;99888.00;;;30.90
65569;BMP180;52211;50.154;8.682;2023-06-10T10:08:52;99894.00;;;31.00
65569;BMP180;52211;50.154;8.682;2023-06-10T10:11:22;99894.00;;;31.10
65569;BMP180;52211;50.154;8.682;2023-06-10T10:13:52;99884.00;;;31.20
65569;BMP180;52211;50.154;8.682;2023-06-10T10:16:30;99882.00;;;31.20
65569;BMP180;52211;50.154;8.682;2023-06-10T10:19:11;99875.00;;;31.30
65569;BMP180;52211;50.154;8.682;2023-06-10T10:21:53;99879.00;;;31.30
65569;BMP180;52211;50.154;8.682;2023-06-10T10:24:30;99884.00;;;31.40
65569;BMP180;52211;50.154;8.682;2023-06-10T10:27:06;99877.00;;;31.50
65569;BMP180;52211;50.154;8.682;2023-06-10T10:29:42;99877.00;;;31.60
65569;BMP180;52211;50.154;8.682;2023-06-10T10:32:16;99873.00;;;31.70
65569;BMP180;52211;50.154;8.682;2023-06-10T10:34:55;99874.00;;;31.80
65569;BMP180;52211;50.154;8.682;2023-06-10T10:37:31;99875.00;;;32.00
65569;BMP180;52211;50.154;8.682;2023-06-10T10:40:01;99878.00;;;32.10
65569;BMP180;52211;50.154;8.682;2023-06-10T10:42:33;99876.00;;;32.20
65569;BMP180;52211;50.154;8.682;2023-06-10T10:45:03;99876.00;;;32.40
65569;BMP180;52211;50.154;8.682;2023-06-10T10:47:36;99877.00;;;32.50
65569;BMP180;52211;50.154;8.682;2023-06-10T10:50:17;99861.00;;;32.70
65569;BMP180;52211;50.154;8.682;2023-06-10T10:53:04;99868.00;;;32.90
65569;BMP180;52211;50.154;8.682;2023-06-10T10:55:32;99860.00;;;33.20
65569;BMP180;52211;50.154;8.682;2023-06-10T10:58:10;99851.00;;;33.40
65569;BMP180;52211;50.154;8.682;2023-06-10T11:00:50;99852.00;;;33.60
65569;BMP180;52211;50.154;8.682;2023-06-10T11:03:28;99857.00;;;33.80
65569;BMP180;52211;50.154;8.682;2023-06-10T11:05:57;99860.00;;;34.00
65569;BMP180;52211;50.154;8.682;2023-06-10T11:08:49;99851.00;;;34.30
65569;BMP180;52211;50.154;8.682;2023-06-10T11:11:28;99853.00;;;34.50
65569;BMP180;52211;50.154;8.682;2023-06-10T11:16:42;99839.00;;;35.10
65569;BMP180;52211;50.154;8.682;2023-06-10T11:19:10;99843.00;;;35.40
65569;BMP180;52211;50.154;8.682;2023-06-10T11:22:03;99846.00;;;35.70
65569;BMP180;52211;50.154;8.682;2023-06-10T11:24:32;99842.00;;;36.00
65569;BMP180;52211;50.154;8.682;2023-06-10T11:27:19;99843.00;;;36.20
65569;BMP180;52211;50.154;8.682;2023-06-10T11:32:33;99842.00;;;36.70
65569;BMP180;52211;50.154;8.682;2023-06-10T11:35:07;99833.00;;;37.00
65569;BMP180;52211;50.154;8.682;2023-06-10T11:37:39;99825.00;;;37.30
65569;BMP180;52211;50.154;8.682;2023-06-10T11:40:09;99832.00;;;37.50
65569;BMP180;52211;50.154;8.682;2023-06-10T11:42:42;99835.00;;;37.60
65569;BMP180;52211;50.154;8.682;2023-06-10T11:45:18;99834.00;;;37.60
65569;BMP180;52211;50.154;8.682;2023-06-10T11:47:58;99832.00;;;37.60
65569;BMP180;52211;50.154;8.682;2023-06-10T11:50:33;99837.00;;;37.70
65569;BMP180;52211;50.154;8.682;2023-06-10T11:53:01;99836.00;;;37.60
65569;BMP180;52211;50.154;8.682;2023-06-10T11:55:48;99838.00;;;37.50
65569;BMP180;52211;50.154;8.682;2023-06-10T11:58:17;99830.00;;;37.40
65569;BMP180;52211;50.154;8.682;2023-06-10T12:00:52;99840.00;;;37.40
65569;BMP180;52211;50.154;8.682;2023-06-10T12:03:38;99827.00;;;37.40
65569;BMP180;52211;50.154;8.682;2023-06-10T12:06:10;99826.00;;;37.60
65569;BMP180;52211;50.154;8.682;2023-06-10T12:08:43;99834.00;;;37.80
65569;BMP180;52211;50.154;8.682;2023-06-10T12:11:14;99829.00;;;38.00
65569;BMP180;52211;50.154;8.682;2023-06-10T12:13:48;99819.00;;;38.20
65569;BMP180;52211;50.154;8.682;2023-06-10T12:16:18;99826.00;;;38.30
65569;BMP180;52211;50.154;8.682;2023-06-10T12:18:48;99812.00;;;38.50
65569;BMP180;52211;50.154;8.682;2023-06-10T12:21:24;99820.00;;;38.70
65569;BMP180;52211;50.154;8.682;2023-06-10T12:24:07;99819.00;;;38.80
65569;BMP180;52211;50.154;8.682;2023-06-10T12:26:40;99813.00;;;39.10
65569;BMP180;52211;50.154;8.682;2023-06-10T12:29:19;99817.00;;;39.30
65569;BMP180;52211;50.154;8.682;2023-06-10T12:32:03;99807.00;;;39.50
65569;BMP180;52211;50.154;8.682;2023-06-10T12:34:39;99792.00;;;39.80
65569;BMP180;52211;50.154;8.682;2023-06-10T12:37:14;99804.00;;;40.10
65569;BMP180;52211;50.154;8.682;2023-06-10T12:39:51;99797.00;;;40.40
65569;BMP180;52211;50.154;8.682;2023-06-10T12:42:23;99804.00;;;40.70
65569;BMP180;52211;50.154;8.682;2023-06-10T12:44:54;99809.00;;;40.90
65569;BMP180;52211;50.154;8.682;2023-06-10T12:47:33;99812.00;;;40.90
65569;BMP180;52211;50.154;8.682;2023-06-10T12:50:07;99812.00;;;40.80
65569;BMP180;52211;50.154;8.682;2023-06-10T12:52:36;99810.00;;;40.70
65569;BMP180;52211;50.154;8.682;2023-06-10T12:55:04;99802.00;;;40.70
65569;BMP180;52211;50.154;8.682;2023-06-10T12:57:31;99804.00;;;40.80
65569;BMP180;52211;50.154;8.682;2023-06-10T12:59:58;99812.00;;;40.90
65569;BMP180;52211;50.154;8.682;2023-06-10T13:02:31;99806.00;;;41.00
65569;BMP180;52211;50.154;8.682;2023-06-10T13:04:58;99790.00;;;41.20
65569;BMP180;52211;50.154;8.682;2023-06-10T13:07:25;99792.00;;;41.40
65569;BMP180;52211;50.154;8.682;2023-06-10T13:09:55;99804.00;;;41.60
65569;BMP180;52211;50.154;8.682;2023-06-10T13:12:24;99796.00;;;41.80
65569;BMP180;52211;50.154;8.682;2023-06-10T13:15:07;99796.00;;;41.90
65569;BMP180;52211;50.154;8.682;2023-06-10T13:17:34;99798.00;;;42.00
65569;BMP180;52211;50.154;8.682;2023-06-10T13:20:04;99797.00;;;42.10
65569;BMP180;52211;50.154;8.682;2023-06-10T13:22:36;99794.00;;;42.20
65569;BMP180;52211;50.154;8.682;2023-06-10T13:25:05;99788.00;;;42.30
65569;BMP180;52211;50.154;8.682;2023-06-10T13:27:36;99792.00;;;42.30
65569;BMP180;52211;50.154;8.682;2023-06-10T13:30:10;99799.00;;;42.20
65569;BMP180;52211;50.154;8.682;2023-06-10T13:32:39;99794.00;;;42.20
65569;BMP180;52211;50.154;8.682;2023-06-10T13:35:09;99789.00;;;42.20
65569;BMP180;52211;50.154;8.682;2023-06-10T13:37:39;99790.00;;;42.10
65569;BMP180;52211;50.154;8.682;2023-06-10T13:40:09;99788.00;;;42.00
65569;BMP180;52211;50.154;8.682;2023-06-10T13:42:45;99782.00;;;42.00
65569;BMP180;52211;50.154;8.682;2023-06-10T13:45:21;99790.00;;;41.90
65569;BMP180;52211;50.154;8.682;2023-06-10T13:47:51;99782.00;;;41.90
65569;BMP180;52211;50.154;8.682;2023-06-10T13:50:23;99782.00;;;41.90
65569;BMP180;52211;50.154;8.682;2023-06-10T13:52:50;99775.00;;;41.80
65569;BMP180;52211;50.154;8.682;2023-06-10T13:55:19;99778.00;;;41.90
65569;BMP180;52211;50.154;8.682;2023-06-10T13:57:49;99788.00;;;42.00
65569;BMP180;52211;50.154;8.682;2023-06-10T14:00:18;99779.00;;;42.10
65569;BMP180;52211;50.154;8.682;2023-06-10T14:02:54;99776.00;;;42.20
65569;BMP180;52211;50.154;8.682;2023-06-10T14:05:24;99774.00;;;42.40
65569;BMP180;52211;50.154;8.682;2023-06-10T14:07:53;99769.00;;;42.60
65569;BMP180;52211;50.154;8.682;2023-06-10T14:10:20;99761.00;;;42.70
65569;BMP180;52211;50.154;8.682;2023-06-10T14:12:49;99772.00;;;42.80
65569;BMP180;52211;50.154;8.682;2023-06-10T14:15:16;99773.00;;;42.90
65569;BMP180;52211;50.154;8.682;2023-06-10T14:17:43;99771.00;;;42.90
65569;BMP180;52211;50.154;8.682;2023-06-10T14:20:13;99766.00;;;43.00
65569;BMP180;52211;50.154;8.682;2023-06-10T14:22:44;99761.00;;;43.00
65569;BMP180;52211;50.154;8.682;2023-06-10T14:25:11;99762.00;;;43.00
65569;BMP180;52211;50.154;8.682;2023-06-10T14:27:41;99758.00;;;43.00
65569;BMP180;52211;50.154;8.682;2023-06-10T14:30:13;99762.00;;;43.00
65569;BMP180;52211;50.154;8.682;2023-06-10T14:32:42;99760.00;;;42.90
65569;BMP180;52211;50.154;8.682;2023-06-10T14:35:11;99758.00;;;42.90
65569;BMP180;52211;50.154;8.682;2023-06-10T14:37:42;99752.00;;;42.80
65569;BMP180;52211;50.154;8.682;2023-06-10T14:40:09;99751.00;;;42.70